Time;durP1;ratioP1;P1;durP2;ratioP2;P2;SDS_P1;SDS_P2;PMS_P1;PMS_P2;Temp;Humidity;BMP_temperature;BMP_pressure;BME280_temperature;BME280_humidity;BME280_pressure;Samples;Min_cycle;Max_cycle;Signal;HPM_P1;HPM_P2
2022/08/24 00:00:17;;;;;;;3.03;1.93;;;15.40;99.90;;;;;;5081112;28;20535;-82
2022/08/24 00:02:44;;;;;;;19.60;3.47;;;15.40;99.90;;;;;;5073412;28;20444;-85
2022/08/24 00:05:12;;;;;;;10.40;2.73;;;15.40;99.90;;;;;;5078371;28;20973;-83
2022/08/24 00:07:39;;;;;;;1.77;1.67;;;15.40;99.90;;;;;;5079775;28;20452;-84
2022/08/24 00:10:08;;;;;;;2.37;2.17;;;15.40;99.90;;;;;;5079299;28;20455;-85
2022/08/24 00:12:35;;;;;;;2.40;2.30;;;15.30;99.90;;;;;;5080439;28;21068;-84
2022/08/24 00:15:05;;;;;;;5.90;2.40;;;15.30;99.90;;;;;;5083684;28;20589;-84
2022/08/24 00:17:33;;;;;;;2.90;2.57;;;15.30;99.90;;;;;;5078100;28;20533;-83
2022/08/24 00:20:01;;;;;;;2.60;1.90;;;15.20;99.90;;;;;;5083160;28;20461;-82
2022/08/24 00:22:28;;;;;;;3.80;2.27;;;15.20;99.90;;;;;;5084666;28;20507;-84
2022/08/24 00:24:55;;;;;;;3.60;3.27;;;15.20;99.90;;;;;;5084863;28;20527;-83
2022/08/24 00:27:23;;;;;;;3.27;1.90;;;15.10;99.90;;;;;;5076125;28;20537;-82
2022/08/24 00:29:50;;;;;;;6.10;3.23;;;15.10;99.90;;;;;;5066976;28;20466;-84
2022/08/24 00:32:18;;;;;;;2.00;1.90;;;15.20;99.90;;;;;;5081441;28;20447;-85
2022/08/24 00:34:45;;;;;;;2.63;2.17;;;15.20;99.90;;;;;;5080183;28;20518;-83
2022/08/24 00:37:12;;;;;;;2.30;2.13;;;15.20;99.90;;;;;;5080532;28;20959;-84
2022/08/24 00:39:39;;;;;;;4.93;2.50;;;15.20;99.90;;;;;;5087959;28;20511;-84
2022/08/24 00:42:07;;;;;;;1.60;1.40;;;15.20;99.90;;;;;;5083877;28;20847;-83
2022/08/24 00:44:34;;;;;;;3.50;2.57;;;15.20;99.90;;;;;;5091380;28;20488;-84
2022/08/24 00:47:04;;;;;;;5.43;2.13;;;15.30;99.90;;;;;;5086383;28;20518;-83
2022/08/24 00:49:39;;;;;;;2.03;1.83;;;15.30;99.90;;;;;;5080120;28;20879;-83
2022/08/24 00:52:11;;;;;;;2.53;2.07;;;15.30;99.90;;;;;;5082848;28;20446;-85
2022/08/24 00:54:43;;;;;;;1.83;1.60;;;15.30;99.90;;;;;;5083059;28;20532;-85
2022/08/24 00:57:13;;;;;;;2.63;2.43;;;15.30;99.90;;;;;;5078542;28;20466;-82
2022/08/24 00:59:45;;;;;;;12.13;2.80;;;15.30;99.90;;;;;;5083922;28;20449;-83
2022/08/24 01:02:16;;;;;;;3.53;2.57;;;15.30;99.90;;;;;;5083749;28;20866;-84
2022/08/24 01:04:52;;;;;;;2.07;1.80;;;15.30;99.90;;;;;;5077328;28;20523;-83
2022/08/24 01:07:21;;;;;;;2.50;2.30;;;15.30;99.90;;;;;;5085272;28;21229;-84
2022/08/24 01:09:49;;;;;;;2.40;2.20;;;15.30;99.90;;;;;;5087134;28;20913;-84
2022/08/24 01:12:16;;;;;;;2.70;2.17;;;15.30;99.90;;;;;;5082272;28;20458;-83
2022/08/24 01:14:44;;;;;;;2.80;2.33;;;15.20;99.90;;;;;;5087374;28;20546;-85
2022/08/24 01:19:58;;;;;;;2.03;1.70;;;15.10;99.90;;;;;;5084459;28;20458;-84
2022/08/24 01:22:51;;;;;;;4.13;1.47;;;15.10;99.90;;;;;;5085524;28;20460;-83
2022/08/24 01:25:20;;;;;;;2.77;1.77;;;15.10;99.90;;;;;;5081206;28;20474;-84
2022/08/24 01:27:49;;;;;;;2.63;2.43;;;15.10;99.90;;;;;;5088598;28;20928;-84
2022/08/24 01:30:17;;;;;;;1.80;1.70;;;15.00;99.90;;;;;;5088695;28;20454;-84
2022/08/24 01:32:54;;;;;;;2.60;1.77;;;15.00;99.90;;;;;;5081096;28;20497;-83
2022/08/24 01:35:21;;;;;;;7.67;2.33;;;15.00;99.90;;;;;;5076518;28;20541;-84
2022/08/24 01:37:49;;;;;;;1.93;1.73;;;15.00;99.90;;;;;;5077290;28;20459;-83
2022/08/24 01:40:16;;;;;;;2.20;2.00;;;15.00;99.90;;;;;;5084983;28;20446;-83
2022/08/24 01:42:50;;;;;;;1.80;1.70;;;14.90;99.90;;;;;;5078355;28;20451;-86
2022/08/24 01:45:17;;;;;;;1.90;1.80;;;15.00;99.90;;;;;;5077652;28;20626;-85
2022/08/24 01:47:44;;;;;;;2.80;2.07;;;15.10;99.90;;;;;;5082388;28;20446;-84
2022/08/24 01:50:12;;;;;;;4.00;1.90;;;15.10;99.90;;;;;;5074483;28;20840;-85
2022/08/24 01:52:42;;;;;;;1.87;1.73;;;15.00;99.90;;;;;;5083717;28;20905;-86
2022/08/24 01:55:10;;;;;;;2.07;1.80;;;15.00;99.90;;;;;;5083362;28;20791;-84
2022/08/24 01:57:39;;;;;;;1.93;1.53;;;15.00;99.90;;;;;;5081589;28;21002;-84
2022/08/24 02:00:10;;;;;;;5.53;2.30;;;14.80;99.90;;;;;;5076214;28;20466;-82
2022/08/24 02:02:41;;;;;;;11.13;2.50;;;14.70;99.90;;;;;;5085419;28;20453;-84
2022/08/24 02:05:09;;;;;;;3.30;2.20;;;14.60;99.90;;;;;;5084115;28;20453;-82
2022/08/24 02:07:37;;;;;;;3.40;1.83;;;14.50;99.90;;;;;;5074272;28;20974;-84
2022/08/24 02:10:05;;;;;;;3.50;2.47;;;14.50;99.90;;;;;;5081457;28;20530;-84
2022/08/24 02:12:33;;;;;;;2.27;2.07;;;14.50;99.90;;;;;;5083085;28;20522;-83
2022/08/24 02:15:01;;;;;;;2.63;2.20;;;14.50;99.90;;;;;;5078347;28;20534;-85
2022/08/24 02:17:30;;;;;;;3.57;2.40;;;14.60;99.90;;;;;;5071833;28;20453;-84
2022/08/24 02:19:57;;;;;;;2.13;1.77;;;14.60;99.90;;;;;;5080957;28;20897;-83
2022/08/24 02:22:24;;;;;;;2.40;2.20;;;14.50;99.90;;;;;;5081660;28;20448;-85
2022/08/24 02:24:51;;;;;;;3.20;2.30;;;14.50;99.90;;;;;;5083517;28;20471;-84
2022/08/24 02:27:18;;;;;;;3.57;2.20;;;14.40;99.90;;;;;;5077817;28;20513;-85
2022/08/24 02:29:45;;;;;;;1.60;1.50;;;14.40;99.90;;;;;;5081561;28;20450;-84
2022/08/24 02:32:13;;;;;;;2.87;2.43;;;14.40;99.90;;;;;;5081234;28;20532;-85
2022/08/24 02:34:42;;;;;;;6.67;2.00;;;14.40;99.90;;;;;;5083005;28;21753;-84
2022/08/24 02:37:09;;;;;;;3.03;1.93;;;14.40;99.90;;;;;;5080568;28;21176;-86
2022/08/24 02:39:36;;;;;;;2.10;1.90;;;14.40;99.90;;;;;;5078251;28;20524;-83
2022/08/24 02:42:04;;;;;;;20.43;2.83;;;14.40;99.90;;;;;;5082580;28;20545;-83
2022/08/24 02:44:31;;;;;;;2.20;2.00;;;14.50;99.90;;;;;;5079383;28;20490;-83
2022/08/24 02:46:59;;;;;;;2.10;1.90;;;14.40;99.90;;;;;;5074257;28;21009;-82
2022/08/24 02:49:26;;;;;;;2.87;2.67;;;14.50;99.90;;;;;;5085271;28;20954;-85
2022/08/24 02:51:54;;;;;;;1.77;1.50;;;14.50;99.90;;;;;;5081697;28;20449;-83
2022/08/24 02:54:22;;;;;;;6.37;2.10;;;14.60;99.90;;;;;;5082533;28;20476;-83
2022/08/24 02:56:49;;;;;;;3.30;1.70;;;14.60;99.90;;;;;;5079510;28;20481;-84
2022/08/24 02:59:16;;;;;;;2.43;1.40;;;14.70;99.90;;;;;;5078026;28;20489;-83
2022/08/24 03:01:43;;;;;;;2.30;1.97;;;14.70;99.90;;;;;;5077895;28;20545;-83
2022/08/24 03:04:10;;;;;;;2.30;1.87;;;14.70;99.90;;;;;;5084010;28;20451;-85
2022/08/24 03:06:37;;;;;;;2.20;2.00;;;14.70;99.90;;;;;;5070149;28;20478;-84
2022/08/24 03:09:06;;;;;;;2.43;2.23;;;14.70;99.90;;;;;;5077792;28;20461;-84
2022/08/24 03:11:33;;;;;;;1.60;1.50;;;14.80;99.90;;;;;;5081691;28;20479;-85
2022/08/24 03:14:00;;;;;;;4.10;2.40;;;14.70;99.90;;;;;;5085242;28;20839;-84
2022/08/24 03:16:29;;;;;;;2.57;1.60;;;14.70;99.90;;;;;;5084051;28;21011;-85
2022/08/24 03:18:56;;;;;;;2.90;2.60;;;14.70;99.90;;;;;;5083157;28;20471;-85
2022/08/24 03:21:23;;;;;;;11.57;2.20;;;14.70;99.90;;;;;;5083360;28;20516;-83
2022/08/24 03:23:51;;;;;;;2.87;1.80;;;14.70;99.90;;;;;;5082213;28;20451;-84
2022/08/24 03:26:19;;;;;;;2.33;1.57;;;14.70;99.90;;;;;;5090602;28;20450;-84
2022/08/24 03:28:46;;;;;;;2.50;2.00;;;14.70;99.90;;;;;;5090954;28;20454;-85
2022/08/24 03:31:13;;;;;;;2.03;1.53;;;14.70;99.90;;;;;;5080226;28;20450;-85
2022/08/24 03:33:40;;;;;;;3.93;1.57;;;14.70;99.90;;;;;;5083553;28;20968;-84
2022/08/24 03:36:08;;;;;;;1.87;1.77;;;14.70;99.90;;;;;;5084184;28;20497;-84
2022/08/24 03:38:35;;;;;;;1.53;1.30;;;14.80;99.90;;;;;;5084274;28;20936;-85
2022/08/24 03:41:02;;;;;;;1.60;1.43;;;14.80;99.90;;;;;;5082215;28;20469;-84
2022/08/24 03:43:45;;;;;;;2.53;1.93;;;14.90;99.90;;;;;;5080497;28;20478;-87
2022/08/24 03:46:14;;;;;;;2.30;1.80;;;14.90;99.90;;;;;;5077721;28;20452;-85
2022/08/24 03:48:41;;;;;;;1.33;1.03;;;14.90;99.90;;;;;;5079610;28;20457;-86
2022/08/24 03:51:12;;;;;;;2.47;2.27;;;14.90;99.90;;;;;;5070666;28;21043;-83
2022/08/24 03:53:40;;;;;;;1.43;1.33;;;14.90;99.90;;;;;;5082783;28;20476;-84
2022/08/24 03:56:07;;;;;;;3.50;2.70;;;14.90;99.90;;;;;;5078299;28;20562;-84
2022/08/24 03:58:37;;;;;;;2.90;1.60;;;15.00;99.90;;;;;;5077025;28;20466;-84
2022/08/24 04:01:04;;;;;;;1.70;1.50;;;15.10;99.90;;;;;;5086147;28;20447;-84
2022/08/24 04:03:35;;;;;;;2.47;2.27;;;15.10;99.90;;;;;;5085550;28;20457;-83
2022/08/24 04:06:02;;;;;;;6.53;2.00;;;15.10;99.90;;;;;;5077832;28;20447;-83
2022/08/24 04:08:29;;;;;;;3.17;2.90;;;15.10;99.90;;;;;;5079420;28;20879;-83
2022/08/24 04:10:56;;;;;;;2.93;2.47;;;15.10;99.90;;;;;;5079570;28;20524;-84
2022/08/24 04:13:23;;;;;;;2.30;2.10;;;15.20;99.90;;;;;;5083081;28;20453;-85
2022/08/24 04:15:51;;;;;;;14.30;2.00;;;15.20;99.90;;;;;;5083089;28;20539;-84
2022/08/24 04:18:19;;;;;;;1.80;1.43;;;15.30;99.90;;;;;;5082476;28;20579;-85
2022/08/24 04:20:46;;;;;;;2.50;2.30;;;15.30;99.90;;;;;;5087277;28;20449;-86
2022/08/24 04:23:14;;;;;;;2.17;1.97;;;15.30;99.90;;;;;;5081940;28;20441;-84
2022/08/24 04:25:43;;;;;;;2.07;1.97;;;15.30;99.90;;;;;;5081836;28;21227;-85
2022/08/24 04:28:10;;;;;;;2.57;2.37;;;15.20;99.90;;;;;;5084697;28;20485;-85
2022/08/24 04:30:41;;;;;;;5.97;1.80;;;15.30;99.90;;;;;;5077149;28;20980;-84
2022/08/24 04:33:10;;;;;;;3.90;2.20;;;15.30;99.90;;;;;;5079915;28;20489;-83
2022/08/24 04:35:38;;;;;;;3.07;2.07;;;15.40;99.90;;;;;;5087223;28;20443;-84
2022/08/24 04:38:06;;;;;;;2.50;2.10;;;15.30;99.90;;;;;;5088148;28;20450;-83
2022/08/24 04:40:33;;;;;;;3.77;2.03;;;15.40;99.90;;;;;;5085769;28;20472;-84
2022/08/24 04:43:01;;;;;;;2.40;2.03;;;15.40;99.90;;;;;;5082154;28;20461;-84
2022/08/24 04:45:28;;;;;;;2.87;2.67;;;15.50;99.90;;;;;;5086870;28;20547;-85
2022/08/24 04:47:55;;;;;;;2.43;2.27;;;15.50;99.90;;;;;;5082483;28;20516;-85
2022/08/24 04:50:24;;;;;;;2.30;2.03;;;15.50;99.90;;;;;;5088208;28;20581;-86
2022/08/24 04:52:51;;;;;;;2.33;2.13;;;15.60;99.90;;;;;;5090803;28;20554;-83
2022/08/24 04:55:18;;;;;;;3.13;2.00;;;15.60;99.90;;;;;;5086403;28;20529;-84
2022/08/24 04:57:45;;;;;;;2.83;2.53;;;15.60;99.90;;;;;;5070843;28;21008;-85
2022/08/24 05:00:13;;;;;;;2.53;2.27;;;15.70;99.90;;;;;;5085468;28;20462;-84
2022/08/24 05:02:40;;;;;;;2.73;1.90;;;15.70;99.90;;;;;;5073016;28;20457;-85
2022/08/24 05:05:09;;;;;;;2.73;2.17;;;15.70;99.90;;;;;;5083624;28;20502;-87
2022/08/24 05:07:37;;;;;;;2.40;2.20;;;15.80;99.90;;;;;;5070540;28;20494;-84
2022/08/24 05:10:06;;;;;;;3.80;2.57;;;15.90;99.90;;;;;;5070610;28;20458;-84
2022/08/24 05:12:33;;;;;;;2.83;2.13;;;15.90;99.90;;;;;;5080063;28;20450;-85
2022/08/24 05:15:00;;;;;;;4.50;2.50;;;15.90;99.90;;;;;;5080804;28;20528;-85
2022/08/24 05:17:27;;;;;;;3.17;2.87;;;15.90;99.90;;;;;;5086588;28;20496;-85
2022/08/24 05:19:54;;;;;;;2.03;1.80;;;16.00;99.90;;;;;;5074468;28;20511;-85
2022/08/24 05:22:21;;;;;;;2.43;2.20;;;16.10;99.90;;;;;;5072434;28;20470;-86
2022/08/24 05:24:50;;;;;;;2.60;2.40;;;16.20;99.90;;;;;;5075012;28;20498;-85
2022/08/24 05:27:18;;;;;;;1.90;1.63;;;16.30;99.90;;;;;;5076324;28;20988;-85
2022/08/24 05:29:45;;;;;;;2.43;2.23;;;16.40;99.90;;;;;;5083452;28;20536;-84
2022/08/24 05:32:12;;;;;;;2.37;1.73;;;16.40;99.90;;;;;;5075043;28;20459;-86
2022/08/24 05:34:39;;;;;;;4.53;2.90;;;16.50;99.90;;;;;;5082824;28;20519;-85
2022/08/24 05:37:07;;;;;;;2.33;1.83;;;16.60;99.90;;;;;;5081365;28;20505;-85
2022/08/24 05:39:34;;;;;;;2.80;2.33;;;16.70;99.90;;;;;;5080149;28;20456;-85
2022/08/24 05:42:03;;;;;;;2.40;1.70;;;16.60;99.90;;;;;;5081188;28;20504;-85
2022/08/24 05:44:30;;;;;;;2.47;2.20;;;16.60;99.90;;;;;;5080281;28;20569;-87
2022/08/24 05:46:58;;;;;;;2.37;2.27;;;16.60;99.90;;;;;;5079919;28;20462;-88
2022/08/24 05:49:25;;;;;;;2.43;2.23;;;16.70;99.90;;;;;;5081425;28;20458;-84
2022/08/24 05:51:52;;;;;;;2.97;2.50;;;16.90;99.90;;;;;;5079820;28;21151;-84
2022/08/24 05:54:21;;;;;;;2.93;2.63;;;17.00;99.90;;;;;;5076535;28;20462;-85
2022/08/24 05:56:48;;;;;;;2.97;1.97;;;16.90;99.90;;;;;;5085204;28;20479;-84
2022/08/24 05:59:18;;;;;;;2.20;2.10;;;16.70;99.90;;;;;;5079198;28;20468;-87
2022/08/24 06:01:45;;;;;;;3.90;2.57;;;16.80;99.90;;;;;;5068549;28;20466;-87
2022/08/24 06:04:12;;;;;;;3.37;3.07;;;16.90;99.90;;;;;;5070546;28;21178;-88
2022/08/24 06:06:39;;;;;;;3.00;2.33;;;17.00;99.90;;;;;;5083637;28;20451;-88
2022/08/24 06:09:07;;;;;;;3.30;2.80;;;17.20;99.90;;;;;;5073375;28;20463;-84
2022/08/24 06:11:36;;;;;;;3.03;2.50;;;17.30;99.90;;;;;;5071714;28;20472;-85
2022/08/24 06:14:06;;;;;;;3.70;2.50;;;17.50;99.90;;;;;;5084452;28;20528;-82
2022/08/24 06:16:36;;;;;;;3.53;3.10;;;17.50;99.90;;;;;;5071272;28;20482;-84
2022/08/24 06:19:05;;;;;;;4.33;2.20;;;17.70;99.90;;;;;;5076611;28;20452;-82
2022/08/24 06:21:32;;;;;;;17.23;3.80;;;17.80;99.90;;;;;;5076203;28;20521;-82
2022/08/24 06:24:00;;;;;;;3.13;2.83;;;17.90;99.90;;;;;;5086381;28;20458;-83
2022/08/24 06:29:13;;;;;;;2.40;2.20;;;18.40;99.90;;;;;;5078834;28;20618;-87
2022/08/24 06:31:44;;;;;;;2.47;1.93;;;18.60;99.90;;;;;;5084722;28;20501;-86
2022/08/24 06:34:13;;;;;;;2.33;2.23;;;18.80;99.90;;;;;;5075096;28;20453;-87
2022/08/24 06:36:40;;;;;;;1.70;1.30;;;18.80;99.90;;;;;;5067645;28;21070;-86
2022/08/24 06:39:08;;;;;;;2.00;1.87;;;18.70;99.90;;;;;;5073175;28;20454;-86
2022/08/24 06:41:35;;;;;;;2.27;2.07;;;18.80;99.90;;;;;;5071135;28;20528;-85
2022/08/24 06:44:03;;;;;;;2.50;2.30;;;18.90;99.90;;;;;;5080705;28;21010;-85
2022/08/24 06:46:30;;;;;;;1.93;1.50;;;18.80;99.90;;;;;;5078647;28;20604;-85
2022/08/24 06:48:58;;;;;;;2.20;2.07;;;18.80;99.90;;;;;;5074610;28;20564;-86
2022/08/24 06:51:26;;;;;;;2.20;1.80;;;18.90;99.90;;;;;;5076380;28;20463;-85
2022/08/24 06:53:54;;;;;;;2.53;2.33;;;19.00;99.90;;;;;;5071906;28;20476;-85
2022/08/24 06:56:22;;;;;;;1.73;1.60;;;19.00;99.90;;;;;;5081356;28;21265;-87
2022/08/24 06:58:51;;;;;;;1.20;1.10;;;19.10;99.90;;;;;;5082996;28;20517;-86
2022/08/24 07:01:21;;;;;;;2.70;2.50;;;19.10;99.90;;;;;;5068745;28;20463;-86
2022/08/24 07:03:48;;;;;;;1.83;1.73;;;19.30;99.90;;;;;;5073782;28;20457;-89
2022/08/24 07:06:17;;;;;;;1.57;1.10;;;19.30;99.90;;;;;;5073770;28;20982;-86
2022/08/24 07:08:45;;;;;;;1.70;1.20;;;19.30;99.90;;;;;;5082357;28;20472;-86
2022/08/24 07:11:14;;;;;;;1.60;1.23;;;19.30;99.90;;;;;;5082810;28;20530;-92
2022/08/24 07:13:42;;;;;;;1.63;1.53;;;19.30;99.90;;;;;;5084318;28;20470;-88
2022/08/24 07:16:09;;;;;;;1.97;1.53;;;19.50;99.90;;;;;;5077699;28;20491;-87
2022/08/24 07:18:38;;;;;;;1.60;1.50;;;19.50;99.90;;;;;;5079948;28;21116;-85
2022/08/24 07:21:05;;;;;;;1.40;1.20;;;19.50;99.90;;;;;;5078398;28;20989;-85
2022/08/24 07:23:34;;;;;;;2.10;1.40;;;19.70;99.90;;;;;;5080312;28;20473;-87
2022/08/24 07:26:07;;;;;;;1.70;1.37;;;19.80;99.90;;;;;;5075007;28;20868;-86
2022/08/24 07:28:37;;;;;;;1.87;1.67;;;19.80;99.90;;;;;;5083773;28;20759;-86
2022/08/24 07:31:04;;;;;;;1.77;1.27;;;19.90;99.90;;;;;;5082173;28;20968;-85
2022/08/24 07:33:32;;;;;;;4.30;0.97;;;20.00;99.90;;;;;;5075922;28;20988;-87
2022/08/24 07:35:59;;;;;;;1.20;1.10;;;20.20;99.90;;;;;;5069455;28;20474;-86
2022/08/24 07:38:26;;;;;;;2.90;1.37;;;20.20;99.90;;;;;;5075636;28;20520;-85
2022/08/24 07:40:55;;;;;;;1.50;1.07;;;20.40;99.90;;;;;;5079130;28;20472;-87
2022/08/24 07:43:22;;;;;;;1.17;0.90;;;20.50;99.90;;;;;;5071061;28;20479;-85
2022/08/24 07:45:49;;;;;;;1.30;1.20;;;20.30;99.90;;;;;;5072139;28;20461;-88
2022/08/24 07:48:17;;;;;;;0.70;0.63;;;20.40;99.90;;;;;;5079424;28;20507;-85
2022/08/24 07:50:44;;;;;;;1.03;1.03;;;20.30;99.90;;;;;;5076837;28;20469;-88
2022/08/24 07:53:11;;;;;;;1.37;0.60;;;20.40;99.90;;;;;;5081873;28;20470;-85
2022/08/24 07:55:39;;;;;;;1.20;1.10;;;20.30;99.90;;;;;;5067682;28;21021;-86
2022/08/24 07:58:07;;;;;;;1.00;0.90;;;20.10;99.90;;;;;;5071662;28;20904;-85
2022/08/24 08:00:35;;;;;;;1.07;0.90;;;20.10;99.90;;;;;;5067069;28;21297;-88
2022/08/24 08:03:03;;;;;;;1.43;1.03;;;20.60;99.90;;;;;;5068847;28;20574;-88
2022/08/24 08:05:30;;;;;;;1.33;1.23;;;20.80;99.90;;;;;;5081309;28;20451;-85
2022/08/24 08:07:57;;;;;;;2.50;0.90;;;21.10;99.90;;;;;;5075047;28;20462;-87
2022/08/24 08:10:25;;;;;;;1.20;1.10;;;21.20;99.90;;;;;;5072467;28;20476;-85
2022/08/24 08:12:52;;;;;;;1.63;1.30;;;21.20;99.90;;;;;;5075051;28;20457;-86
2022/08/24 08:15:20;;;;;;;1.23;0.90;;;21.30;99.90;;;;;;5085346;28;20455;-85
2022/08/24 08:17:48;;;;;;;1.83;1.07;;;21.20;99.90;;;;;;5072565;28;20593;-87
2022/08/24 08:20:15;;;;;;;1.13;0.83;;;21.40;99.90;;;;;;5083460;28;20458;-87
2022/08/24 08:25:26;;;;;;;1.00;0.80;;;21.40;99.90;;;;;;5076584;28;20462;-86
2022/08/24 08:27:53;;;;;;;1.00;0.90;;;21.50;99.90;;;;;;5079203;28;20522;-86
2022/08/24 08:30:22;;;;;;;1.07;0.70;;;21.60;99.90;;;;;;5081582;28;21014;-87
2022/08/24 08:32:49;;;;;;;1.53;1.10;;;21.70;99.90;;;;;;5065798;28;20475;-86
2022/08/24 08:35:17;;;;;;;1.00;0.80;;;21.50;99.90;;;;;;5072228;28;20471;-88
2022/08/24 08:37:45;;;;;;;1.43;0.80;;;21.30;99.90;;;;;;5079975;28;20482;-84
2022/08/24 08:40:24;;;;;;;3.00;0.90;;;21.00;99.90;;;;;;5075868;28;20459;-84
2022/08/24 08:43:01;;;;;;;1.10;1.00;;;20.60;99.90;;;;;;5068962;28;20479;-86
2022/08/24 08:45:44;;;;;;;1.57;1.10;;;20.50;99.90;;;;;;5082195;28;20580;-87
2022/08/24 08:48:47;;;;;;;1.30;1.10;;;20.40;99.90;;;;;;5065455;28;20986;-86
2022/08/24 08:51:56;;;;;;;1.60;1.17;;;20.30;99.90;;;;;;5077698;28;20466;-86
2022/08/24 08:54:52;;;;;;;1.50;1.40;;;20.60;99.90;;;;;;5062914;28;20497;-84
2022/08/24 08:57:32;;;;;;;0.77;0.70;;;21.20;99.90;;;;;;5070031;28;20486;-84
2022/08/24 09:00:12;;;;;;;1.00;0.90;;;21.20;99.90;;;;;;5080629;28;20451;-85
2022/08/24 09:03:24;;;;;;;1.33;1.00;;;21.00;99.90;;;;;;5075771;28;20594;-89
2022/08/24 09:06:22;;;;;;;0.70;0.60;;;21.10;99.90;;;;;;5034018;28;20530;-89
2022/08/24 09:09:20;;;;;;;1.43;0.87;;;21.10;99.90;;;;;;5068466;28;21139;-87
2022/08/24 09:12:00;;;;;;;1.13;0.90;;;21.40;99.90;;;;;;5073945;28;20459;-85
2022/08/24 09:15:10;;;;;;;0.70;0.70;;;21.50;99.90;;;;;;5079772;28;20933;-87
2022/08/24 09:17:50;;;;;;;1.00;0.80;;;21.60;99.90;;;;;;5087214;28;21178;-85
2022/08/24 09:20:34;;;;;;;1.63;1.50;;;21.90;99.90;;;;;;5085768;28;20493;-85
2022/08/24 09:23:09;;;;;;;0.80;0.73;;;22.10;99.90;;;;;;5077466;28;21063;-85
2022/08/24 09:25:46;;;;;;;1.20;0.80;;;21.90;99.90;;;;;;5088116;28;20459;-86
2022/08/24 09:28:31;;;;;;;0.90;0.80;;;22.00;99.90;;;;;;5079723;28;20470;-85
2022/08/24 09:31:26;;;;;;;1.30;1.10;;;22.00;99.90;;;;;;5078815;28;20452;-86
2022/08/24 09:34:06;;;;;;;0.97;0.80;;;22.30;99.90;;;;;;5086660;28;20447;-89
2022/08/24 09:36:52;;;;;;;1.13;0.90;;;22.70;99.90;;;;;;5082723;28;20910;-89
2022/08/24 09:39:36;;;;;;;0.80;0.60;;;22.70;99.90;;;;;;5069037;28;20506;-89
2022/08/24 09:42:45;;;;;;;1.10;1.00;;;22.80;99.90;;;;;;5072406;28;20471;-85
2022/08/24 09:45:35;;;;;;;1.53;1.00;;;23.20;99.90;;;;;;5077503;28;20582;-85
2022/08/24 09:48:26;;;;;;;0.63;0.63;;;23.20;99.90;;;;;;5069780;28;20468;-85
2022/08/24 09:51:19;;;;;;;0.80;0.70;;;23.10;99.90;;;;;;5074663;28;20533;-85
2022/08/24 09:54:24;;;;;;;0.90;0.80;;;23.00;99.90;;;;;;5084897;28;20460;-86
2022/08/24 09:57:12;;;;;;;0.80;0.70;;;22.90;99.90;;;;;;5048685;28;21241;-86
2022/08/24 09:59:56;;;;;;;1.13;0.90;;;23.40;99.90;;;;;;5076491;28;20499;-87
2022/08/24 10:02:55;;;;;;;2.70;0.90;;;23.60;99.90;;;;;;5077006;28;20455;-88
2022/08/24 10:05:30;;;;;;;1.07;0.70;;;23.40;99.90;;;;;;5073933;28;20470;-86
2022/08/24 10:08:09;;;;;;;1.63;1.13;;;23.80;99.90;;;;;;5070964;28;20459;-86
2022/08/24 10:10:47;;;;;;;1.73;0.50;;;23.70;99.90;;;;;;5071700;28;21052;-86
2022/08/24 10:13:25;;;;;;;1.00;0.73;;;23.70;99.90;;;;;;5073991;28;20464;-86
2022/08/24 10:16:11;;;;;;;1.10;0.70;;;23.90;99.90;;;;;;5074428;28;20455;-88
2022/08/24 10:18:51;;;;;;;0.67;0.67;;;24.00;99.90;;;;;;5074457;28;20518;-86
2022/08/24 10:21:30;;;;;;;0.87;0.50;;;23.90;99.90;;;;;;5075999;28;20462;-86
2022/08/24 10:24:26;;;;;;;0.70;0.70;;;23.50;99.90;;;;;;5083388;28;20450;-88
2022/08/24 10:27:17;;;;;;;1.03;0.80;;;23.70;99.90;;;;;;5052832;28;20525;-86
2022/08/24 10:30:14;;;;;;;0.60;0.60;;;24.00;99.90;;;;;;5075113;28;20469;-88
2022/08/24 10:32:54;;;;;;;1.00;0.70;;;24.20;99.90;;;;;;5074662;28;20439;-87
2022/08/24 10:35:27;;;;;;;0.50;0.50;;;24.70;99.90;;;;;;5082188;28;20484;-86
2022/08/24 10:41:41;;;;;;;0.60;0.50;;;25.10;99.90;;;;;;5077728;28;20517;-88
2022/08/24 10:44:34;;;;;;;0.60;0.50;;;25.00;98.50;;;;;;5069399;28;20585;-87
2022/08/24 10:47:12;;;;;;;0.60;0.50;;;24.90;99.00;;;;;;5068319;28;20459;-86
2022/08/24 10:50:15;;;;;;;0.60;0.60;;;25.20;99.60;;;;;;5080563;28;20469;-89
2022/08/24 10:53:07;;;;;;;0.60;0.60;;;25.40;96.50;;;;;;5071592;28;20468;-84
2022/08/24 10:55:35;;;;;;;0.70;0.60;;;25.80;99.40;;;;;;5072160;28;20467;-82
2022/08/24 10:58:39;;;;;;;2.40;0.70;;;25.50;98.20;;;;;;5072644;28;20479;-87
2022/08/24 11:01:31;;;;;;;0.70;0.67;;;26.10;97.60;;;;;;5071540;28;20463;-83
2022/08/24 11:04:10;;;;;;;0.73;0.73;;;26.00;98.10;;;;;;5049961;28;20871;-85
2022/08/24 11:06:39;;;;;;;0.60;0.50;;;25.90;97.00;;;;;;5072724;28;20455;-86
2022/08/24 11:09:09;;;;;;;0.60;0.40;;;25.50;97.50;;;;;;5072034;28;20926;-86
2022/08/24 11:11:38;;;;;;;0.70;0.70;;;25.30;96.20;;;;;;5083662;28;20933;-86
2022/08/24 11:14:08;;;;;;;0.80;0.60;;;24.80;98.90;;;;;;5074042;28;20463;-83
2022/08/24 11:16:37;;;;;;;1.27;0.60;;;24.90;97.40;;;;;;5083209;28;20454;-82
2022/08/24 11:19:11;;;;;;;0.60;0.50;;;24.80;99.90;;;;;;5076682;28;20487;-83
2022/08/24 11:21:49;;;;;;;0.70;0.57;;;25.10;98.20;;;;;;5072487;28;20492;-85
2022/08/24 11:24:29;;;;;;;0.60;0.60;;;25.10;98.20;;;;;;5069239;28;20517;-83
2022/08/24 11:26:59;;;;;;;0.70;0.70;;;25.20;97.50;;;;;;5091756;28;20884;-83
2022/08/24 11:29:50;;;;;;;0.60;0.60;;;25.30;97.50;;;;;;5080848;28;20756;-86
2022/08/24 11:32:31;;;;;;;0.70;0.53;;;25.30;97.20;;;;;;5066169;28;20642;-84
2022/08/24 11:35:04;;;;;;;0.60;0.60;;;25.70;98.50;;;;;;5078316;28;20458;-85
2022/08/24 11:37:33;;;;;;;0.50;0.50;;;25.30;95.10;;;;;;5069967;28;20474;-81
2022/08/24 11:40:01;;;;;;;0.53;0.50;;;25.10;96.90;;;;;;5073092;28;20822;-84
2022/08/24 11:42:42;;;;;;;0.53;0.47;;;25.50;98.30;;;;;;5077414;28;21188;-84
2022/08/24 11:45:15;;;;;;;1.17;1.07;;;25.70;98.30;;;;;;5078956;28;20575;-86
2022/08/24 11:47:52;;;;;;;0.70;0.50;;;25.70;96.40;;;;;;5075629;28;20459;-85
2022/08/24 11:50:26;;;;;;;0.60;0.50;;;25.50;97.10;;;;;;5078202;28;20558;-86
2022/08/24 11:53:03;;;;;;;0.70;0.70;;;25.40;97.60;;;;;;5080018;28;20962;-86
2022/08/24 11:55:38;;;;;;;0.60;0.50;;;24.90;96.80;;;;;;5082437;28;20467;-87
2022/08/24 11:58:13;;;;;;;0.60;0.53;;;25.00;97.90;;;;;;5078131;28;20560;-87
2022/08/24 12:00:47;;;;;;;0.60;0.50;;;25.00;98.60;;;;;;5078311;28;20459;-88
2022/08/24 12:03:33;;;;;;;0.50;0.47;;;24.90;96.50;;;;;;5077100;28;20581;-85
2022/08/24 12:06:13;;;;;;;1.37;0.70;;;25.00;97.20;;;;;;5080581;28;20462;-86
2022/08/24 12:08:45;;;;;;;0.80;0.50;;;25.20;98.40;;;;;;5075623;28;20475;-88
2022/08/24 12:11:19;;;;;;;1.47;0.70;;;25.20;97.20;;;;;;5078864;28;20540;-90
2022/08/24 12:13:52;;;;;;;0.80;0.80;;;25.10;98.60;;;;;;5077994;28;20454;-86
2022/08/24 12:16:28;;;;;;;0.60;0.60;;;25.00;97.20;;;;;;5088155;28;20554;-85
2022/08/24 12:19:00;;;;;;;0.60;0.50;;;24.80;97.20;;;;;;5081678;28;20503;-86
2022/08/24 12:21:31;;;;;;;0.57;0.53;;;24.70;97.30;;;;;;5083331;28;20466;-86
2022/08/24 12:24:03;;;;;;;0.70;0.50;;;24.50;97.70;;;;;;5077941;28;20463;-85
2022/08/24 12:26:38;;;;;;;0.53;0.53;;;24.40;97.70;;;;;;5075815;28;20975;-86
2022/08/24 12:29:09;;;;;;;0.93;0.70;;;24.30;98.30;;;;;;5077649;28;20873;-85
2022/08/24 12:31:41;;;;;;;0.67;0.50;;;24.10;98.00;;;;;;5079649;28;20559;-84
2022/08/24 12:34:13;;;;;;;0.80;0.50;;;24.10;97.90;;;;;;5072034;28;20471;-85
2022/08/24 12:36:56;;;;;;;0.60;0.60;;;24.40;99.20;;;;;;5081334;28;20460;-85
2022/08/24 12:39:29;;;;;;;1.00;0.60;;;24.40;98.40;;;;;;5083342;28;20489;-86
2022/08/24 12:42:05;;;;;;;0.70;0.60;;;24.40;98.80;;;;;;5078723;28;20456;-86
2022/08/24 12:44:41;;;;;;;0.70;0.60;;;24.30;99.10;;;;;;5075855;28;20887;-85
2022/08/24 12:47:08;;;;;;;1.87;0.90;;;24.50;98.30;;;;;;5077395;28;21253;-85
2022/08/24 12:49:43;;;;;;;0.70;0.60;;;24.50;98.00;;;;;;5076966;28;20848;-87
2022/08/24 12:52:31;;;;;;;0.60;0.53;;;24.60;97.90;;;;;;5077214;28;21124;-86
2022/08/24 12:55:17;;;;;;;1.43;0.60;;;24.50;97.60;;;;;;5081048;28;21027;-86
2022/08/24 12:57:57;;;;;;;2.60;0.80;;;24.40;99.30;;;;;;5077288;28;20468;-86
2022/08/24 13:00:28;;;;;;;0.70;0.70;;;24.50;98.60;;;;;;5085614;28;21148;-86
2022/08/24 13:02:58;;;;;;;0.57;0.50;;;24.50;99.90;;;;;;5084709;28;20471;-86
2022/08/24 13:05:37;;;;;;;0.63;0.50;;;24.60;98.80;;;;;;5073907;28;20462;-87
2022/08/24 13:08:14;;;;;;;0.60;0.50;;;24.80;98.10;;;;;;5078765;28;20520;-90
2022/08/24 13:10:51;;;;;;;0.63;0.63;;;24.60;97.80;;;;;;5071716;28;20512;-86
2022/08/24 13:13:39;;;;;;;0.83;0.70;;;24.70;98.60;;;;;;5076877;28;20469;-87
2022/08/24 13:16:07;;;;;;;0.83;0.60;;;24.80;98.80;;;;;;5078755;28;20526;-87
2022/08/24 13:19:18;;;;;;;0.90;0.50;;;24.80;99.90;;;;;;5076403;28;20486;-88
2022/08/24 13:21:52;;;;;;;0.80;0.63;;;25.00;98.10;;;;;;5040347;28;20488;-87
2022/08/24 13:25:01;;;;;;;0.67;0.50;;;25.00;98.40;;;;;;5078919;28;20466;-87